sensor_id;sensor_type;location;lat;lon;timestamp;P1;durP1;ratioP1;P2;durP2;ratioP2
71091;SDS011;58751;50.708;7.134;2023-09-19T00:00:43;1.93;;;1.83;;
71091;SDS011;58751;50.708;7.134;2023-09-19T00:03:10;1.60;;;1.50;;
71091;SDS011;58751;50.708;7.134;2023-09-19T00:05:36;4.03;;;1.87;;
71091;SDS011;58751;50.708;7.134;2023-09-19T00:08:02;1.90;;;1.33;;
71091;SDS011;58751;50.708;7.134;2023-09-19T00:10:28;9.27;;;1.60;;
71091;SDS011;58751;50.708;7.134;2023-09-19T00:12:54;2.53;;;1.90;;
71091;SDS011;58751;50.708;7.134;2023-09-19T00:15:19;2.10;;;1.50;;
71091;SDS011;58751;50.708;7.134;2023-09-19T00:17:44;1.70;;;1.53;;
71091;SDS011;58751;50.708;7.134;2023-09-19T00:20:12;2.23;;;1.60;;
71091;SDS011;58751;50.708;7.134;2023-09-19T00:22:38;2.38;;;1.27;;
71091;SDS011;58751;50.708;7.134;2023-09-19T00:25:04;4.00;;;2.00;;
71091;SDS011;58751;50.708;7.134;2023-09-19T00:27:30;2.07;;;1.87;;
71091;SDS011;58751;50.708;7.134;2023-09-19T00:29:56;6.10;;;1.70;;
71091;SDS011;58751;50.708;7.134;2023-09-19T00:32:21;2.10;;;1.10;;
71091;SDS011;58751;50.708;7.134;2023-09-19T00:34:46;1.43;;;1.30;;
71091;SDS011;58751;50.708;7.134;2023-09-19T00:37:13;2.83;;;1.50;;
71091;SDS011;58751;50.708;7.134;2023-09-19T00:39:38;3.70;;;2.07;;
71091;SDS011;58751;50.708;7.134;2023-09-19T00:42:04;5.37;;;2.33;;
71091;SDS011;58751;50.708;7.134;2023-09-19T00:44:29;1.73;;;1.63;;
71091;SDS011;58751;50.708;7.134;2023-09-19T00:46:55;2.97;;;1.50;;
71091;SDS011;58751;50.708;7.134;2023-09-19T00:49:20;2.67;;;1.47;;
71091;SDS011;58751;50.708;7.134;2023-09-19T00:51:45;1.63;;;1.53;;
71091;SDS011;58751;50.708;7.134;2023-09-19T00:54:12;5.73;;;1.70;;
71091;SDS011;58751;50.708;7.134;2023-09-19T00:56:38;4.67;;;1.80;;
71091;SDS011;58751;50.708;7.134;2023-09-19T00:59:03;3.67;;;2.03;;
71091;SDS011;58751;50.708;7.134;2023-09-19T01:01:29;2.33;;;1.70;;
71091;SDS011;58751;50.708;7.134;2023-09-19T01:03:54;2.70;;;1.70;;
71091;SDS011;58751;50.708;7.134;2023-09-19T01:06:19;5.43;;;2.30;;
71091;SDS011;58751;50.708;7.134;2023-09-19T01:08:45;2.83;;;1.77;;
71091;SDS011;58751;50.708;7.134;2023-09-19T01:11:13;2.60;;;1.87;;
71091;SDS011;58751;50.708;7.134;2023-09-19T01:13:47;1.70;;;1.57;;
71091;SDS011;58751;50.708;7.134;2023-09-19T01:16:19;3.50;;;1.90;;
71091;SDS011;58751;50.708;7.134;2023-09-19T01:18:55;5.83;;;2.23;;
71091;SDS011;58751;50.708;7.134;2023-09-19T01:21:28;4.37;;;2.30;;
71091;SDS011;58751;50.708;7.134;2023-09-19T01:24:01;2.10;;;1.90;;
71091;SDS011;58751;50.708;7.134;2023-09-19T01:26:43;2.83;;;1.70;;
71091;SDS011;58751;50.708;7.134;2023-09-19T01:29:23;4.93;;;2.07;;
71091;SDS011;58751;50.708;7.134;2023-09-19T01:31:54;1.53;;;1.43;;
71091;SDS011;58751;50.708;7.134;2023-09-19T01:34:26;2.97;;;1.43;;
71091;SDS011;58751;50.708;7.134;2023-09-19T01:36:51;1.43;;;1.30;;
71091;SDS011;58751;50.708;7.134;2023-09-19T01:39:17;4.67;;;2.13;;
71091;SDS011;58751;50.708;7.134;2023-09-19T01:41:48;4.50;;;1.83;;
71091;SDS011;58751;50.708;7.134;2023-09-19T01:44:22;2.00;;;1.60;;
71091;SDS011;58751;50.708;7.134;2023-09-19T01:46:50;3.50;;;1.75;;
71091;SDS011;58751;50.708;7.134;2023-09-19T01:49:22;5.67;;;1.80;;
71091;SDS011;58751;50.708;7.134;2023-09-19T01:51:53;3.27;;;2.53;;
71091;SDS011;58751;50.708;7.134;2023-09-19T01:54:24;3.27;;;1.63;;
71091;SDS011;58751;50.708;7.134;2023-09-19T01:56:52;2.20;;;1.90;;
71091;SDS011;58751;50.708;7.134;2023-09-19T01:59:28;2.70;;;1.77;;
71091;SDS011;58751;50.708;7.134;2023-09-19T02:01:59;1.80;;;1.30;;
71091;SDS011;58751;50.708;7.134;2023-09-19T02:04:26;2.27;;;1.67;;
71091;SDS011;58751;50.708;7.134;2023-09-19T02:06:51;7.40;;;2.60;;
71091;SDS011;58751;50.708;7.134;2023-09-19T02:09:17;6.17;;;2.27;;
71091;SDS011;58751;50.708;7.134;2023-09-19T02:11:42;2.70;;;2.00;;
71091;SDS011;58751;50.708;7.134;2023-09-19T02:14:07;8.00;;;2.10;;
71091;SDS011;58751;50.708;7.134;2023-09-19T02:16:33;4.03;;;1.80;;
71091;SDS011;58751;50.708;7.134;2023-09-19T02:18:58;8.90;;;2.67;;
71091;SDS011;58751;50.708;7.134;2023-09-19T02:21:25;5.63;;;2.07;;
71091;SDS011;58751;50.708;7.134;2023-09-19T02:23:50;6.73;;;1.93;;
71091;SDS011;58751;50.708;7.134;2023-09-19T02:26:16;6.27;;;1.90;;
71091;SDS011;58751;50.708;7.134;2023-09-19T02:28:41;6.13;;;2.30;;
71091;SDS011;58751;50.708;7.134;2023-09-19T02:31:07;3.17;;;1.93;;
71091;SDS011;58751;50.708;7.134;2023-09-19T02:33:32;5.70;;;2.20;;
71091;SDS011;58751;50.708;7.134;2023-09-19T02:35:58;4.73;;;1.90;;
71091;SDS011;58751;50.708;7.134;2023-09-19T02:38:25;4.63;;;2.13;;
71091;SDS011;58751;50.708;7.134;2023-09-19T02:40:50;5.13;;;1.43;;
71091;SDS011;58751;50.708;7.134;2023-09-19T02:43:16;5.10;;;2.00;;
71091;SDS011;58751;50.708;7.134;2023-09-19T02:45:41;6.70;;;1.93;;
71091;SDS011;58751;50.708;7.134;2023-09-19T02:48:07;5.03;;;2.03;;
71091;SDS011;58751;50.708;7.134;2023-09-19T02:50:32;6.63;;;2.20;;
71091;SDS011;58751;50.708;7.134;2023-09-19T02:52:58;6.33;;;2.17;;
71091;SDS011;58751;50.708;7.134;2023-09-19T02:55:25;5.20;;;2.70;;
71091;SDS011;58751;50.708;7.134;2023-09-19T02:57:51;3.73;;;2.23;;
71091;SDS011;58751;50.708;7.134;2023-09-19T03:00:17;7.40;;;2.40;;
71091;SDS011;58751;50.708;7.134;2023-09-19T03:02:43;9.73;;;2.47;;
71091;SDS011;58751;50.708;7.134;2023-09-19T03:05:09;6.00;;;2.17;;
71091;SDS011;58751;50.708;7.134;2023-09-19T03:07:34;3.07;;;1.87;;
71091;SDS011;58751;50.708;7.134;2023-09-19T03:10:00;8.67;;;2.80;;
71091;SDS011;58751;50.708;7.134;2023-09-19T03:12:26;5.50;;;2.40;;
71091;SDS011;58751;50.708;7.134;2023-09-19T03:14:52;6.88;;;2.88;;
71091;SDS011;58751;50.708;7.134;2023-09-19T03:17:17;4.07;;;2.30;;
71091;SDS011;58751;50.708;7.134;2023-09-19T03:19:43;5.17;;;1.73;;
71091;SDS011;58751;50.708;7.134;2023-09-19T03:22:08;5.67;;;2.33;;
71091;SDS011;58751;50.708;7.134;2023-09-19T03:24:34;4.00;;;2.40;;
71091;SDS011;58751;50.708;7.134;2023-09-19T03:26:59;6.00;;;2.37;;
71091;SDS011;58751;50.708;7.134;2023-09-19T03:29:26;4.20;;;2.10;;
71091;SDS011;58751;50.708;7.134;2023-09-19T03:31:51;3.90;;;2.10;;
71091;SDS011;58751;50.708;7.134;2023-09-19T03:34:17;7.83;;;2.63;;
71091;SDS011;58751;50.708;7.134;2023-09-19T03:36:42;3.03;;;1.83;;
71091;SDS011;58751;50.708;7.134;2023-09-19T03:39:08;6.60;;;3.00;;
71091;SDS011;58751;50.708;7.134;2023-09-19T03:41:33;5.37;;;2.30;;
71091;SDS011;58751;50.708;7.134;2023-09-19T03:43:59;11.30;;;2.87;;
71091;SDS011;58751;50.708;7.134;2023-09-19T03:46:25;4.73;;;1.77;;
71091;SDS011;58751;50.708;7.134;2023-09-19T03:48:51;8.25;;;2.85;;
71091;SDS011;58751;50.708;7.134;2023-09-19T03:51:16;3.10;;;2.10;;
71091;SDS011;58751;50.708;7.134;2023-09-19T03:53:42;8.67;;;2.93;;
71091;SDS011;58751;50.708;7.134;2023-09-19T03:56:07;5.43;;;2.20;;
71091;SDS011;58751;50.708;7.134;2023-09-19T03:58:32;8.00;;;3.30;;
71091;SDS011;58751;50.708;7.134;2023-09-19T04:00:58;6.23;;;2.70;;
71091;SDS011;58751;50.708;7.134;2023-09-19T04:03:24;4.20;;;2.17;;
71091;SDS011;58751;50.708;7.134;2023-09-19T04:05:50;5.50;;;2.50;;
71091;SDS011;58751;50.708;7.134;2023-09-19T04:08:15;8.23;;;3.00;;
71091;SDS011;58751;50.708;7.134;2023-09-19T04:10:41;11.23;;;2.63;;
71091;SDS011;58751;50.708;7.134;2023-09-19T04:13:07;4.85;;;2.55;;
71091;SDS011;58751;50.708;7.134;2023-09-19T04:15:33;5.50;;;2.63;;
71091;SDS011;58751;50.708;7.134;2023-09-19T04:17:58;6.50;;;2.57;;
71091;SDS011;58751;50.708;7.134;2023-09-19T04:20:25;7.97;;;2.90;;
71091;SDS011;58751;50.708;7.134;2023-09-19T04:22:50;8.93;;;2.50;;
71091;SDS011;58751;50.708;7.134;2023-09-19T04:25:16;9.60;;;3.00;;
71091;SDS011;58751;50.708;7.134;2023-09-19T04:27:41;6.37;;;2.50;;
71091;SDS011;58751;50.708;7.134;2023-09-19T04:30:07;7.83;;;2.50;;
71091;SDS011;58751;50.708;7.134;2023-09-19T04:32:33;6.15;;;2.30;;
71091;SDS011;58751;50.708;7.134;2023-09-19T04:34:58;5.40;;;3.00;;
71091;SDS011;58751;50.708;7.134;2023-09-19T04:37:25;9.07;;;2.87;;
71091;SDS011;58751;50.708;7.134;2023-09-19T04:39:50;7.63;;;2.70;;
71091;SDS011;58751;50.708;7.134;2023-09-19T04:42:15;7.07;;;3.70;;
71091;SDS011;58751;50.708;7.134;2023-09-19T04:44:41;6.57;;;2.60;;
71091;SDS011;58751;50.708;7.134;2023-09-19T04:47:06;9.00;;;2.47;;
71091;SDS011;58751;50.708;7.134;2023-09-19T04:49:32;5.37;;;3.17;;
71091;SDS011;58751;50.708;7.134;2023-09-19T04:51:57;4.53;;;2.03;;
71091;SDS011;58751;50.708;7.134;2023-09-19T04:54:24;6.10;;;2.90;;
71091;SDS011;58751;50.708;7.134;2023-09-19T04:56:49;4.40;;;2.13;;
71091;SDS011;58751;50.708;7.134;2023-09-19T04:59:14;8.07;;;2.80;;
71091;SDS011;58751;50.708;7.134;2023-09-19T05:01:40;6.57;;;2.53;;
71091;SDS011;58751;50.708;7.134;2023-09-19T05:04:05;7.67;;;2.90;;
71091;SDS011;58751;50.708;7.134;2023-09-19T05:06:31;11.70;;;3.87;;
71091;SDS011;58751;50.708;7.134;2023-09-19T05:08:56;6.67;;;2.10;;
71091;SDS011;58751;50.708;7.134;2023-09-19T05:11:23;7.97;;;2.93;;
71091;SDS011;58751;50.708;7.134;2023-09-19T05:13:48;5.40;;;2.15;;
71091;SDS011;58751;50.708;7.134;2023-09-19T05:16:14;6.50;;;2.63;;
71091;SDS011;58751;50.708;7.134;2023-09-19T05:18:39;10.33;;;2.33;;
71091;SDS011;58751;50.708;7.134;2023-09-19T05:21:05;6.53;;;2.53;;
71091;SDS011;58751;50.708;7.134;2023-09-19T05:23:30;4.13;;;2.70;;
71091;SDS011;58751;50.708;7.134;2023-09-19T05:25:56;4.03;;;2.50;;
71091;SDS011;58751;50.708;7.134;2023-09-19T05:28:22;4.27;;;2.40;;
71091;SDS011;58751;50.708;7.134;2023-09-19T05:30:48;4.68;;;3.13;;
71091;SDS011;58751;50.708;7.134;2023-09-19T05:33:13;8.30;;;2.80;;
71091;SDS011;58751;50.708;7.134;2023-09-19T05:35:38;7.20;;;2.73;;
71091;SDS011;58751;50.708;7.134;2023-09-19T05:38:04;9.57;;;3.53;;
71091;SDS011;58751;50.708;7.134;2023-09-19T05:40:29;6.90;;;2.73;;
71091;SDS011;58751;50.708;7.134;2023-09-19T05:42:55;9.77;;;3.27;;
71091;SDS011;58751;50.708;7.134;2023-09-19T05:45:21;6.00;;;2.77;;
71091;SDS011;58751;50.708;7.134;2023-09-19T05:47:47;8.38;;;2.63;;
71091;SDS011;58751;50.708;7.134;2023-09-19T05:50:12;5.07;;;2.47;;
71091;SDS011;58751;50.708;7.134;2023-09-19T05:52:38;6.20;;;2.63;;
71091;SDS011;58751;50.708;7.134;2023-09-19T05:55:03;3.73;;;1.93;;
71091;SDS011;58751;50.708;7.134;2023-09-19T05:57:29;9.80;;;3.43;;
71091;SDS011;58751;50.708;7.134;2023-09-19T05:59:54;8.03;;;2.63;;
71091;SDS011;58751;50.708;7.134;2023-09-19T06:02:21;7.93;;;3.30;;
71091;SDS011;58751;50.708;7.134;2023-09-19T06:04:47;5.50;;;2.40;;
71091;SDS011;58751;50.708;7.134;2023-09-19T06:07:12;4.07;;;2.20;;
71091;SDS011;58751;50.708;7.134;2023-09-19T06:09:37;6.13;;;2.93;;
71091;SDS011;58751;50.708;7.134;2023-09-19T06:12:03;9.43;;;3.47;;
71091;SDS011;58751;50.708;7.134;2023-09-19T06:14:29;5.50;;;2.27;;
71091;SDS011;58751;50.708;7.134;2023-09-19T06:16:54;7.13;;;2.63;;
71091;SDS011;58751;50.708;7.134;2023-09-19T06:19:23;7.80;;;3.03;;
71091;SDS011;58751;50.708;7.134;2023-09-19T06:21:49;8.00;;;3.00;;
71091;SDS011;58751;50.708;7.134;2023-09-19T06:24:14;9.97;;;3.23;;
71091;SDS011;58751;50.708;7.134;2023-09-19T06:26:40;9.83;;;3.30;;
71091;SDS011;58751;50.708;7.134;2023-09-19T06:29:05;6.10;;;3.33;;
71091;SDS011;58751;50.708;7.134;2023-09-19T06:31:30;3.23;;;2.03;;
71091;SDS011;58751;50.708;7.134;2023-09-19T06:33:56;6.93;;;2.70;;
71091;SDS011;58751;50.708;7.134;2023-09-19T06:36:23;8.40;;;3.03;;
71091;SDS011;58751;50.708;7.134;2023-09-19T06:38:48;6.83;;;2.50;;
71091;SDS011;58751;50.708;7.134;2023-09-19T06:41:14;7.27;;;2.90;;
71091;SDS011;58751;50.708;7.134;2023-09-19T06:43:41;6.57;;;3.17;;
71091;SDS011;58751;50.708;7.134;2023-09-19T06:46:06;10.90;;;3.27;;
71091;SDS011;58751;50.708;7.134;2023-09-19T06:48:32;6.70;;;2.80;;
71091;SDS011;58751;50.708;7.134;2023-09-19T06:50:57;6.50;;;3.70;;
71091;SDS011;58751;50.708;7.134;2023-09-19T06:53:24;4.93;;;2.73;;
71091;SDS011;58751;50.708;7.134;2023-09-19T06:55:49;6.03;;;3.13;;
71091;SDS011;58751;50.708;7.134;2023-09-19T06:58:15;5.90;;;3.00;;
71091;SDS011;58751;50.708;7.134;2023-09-19T07:00:40;6.00;;;2.37;;
71091;SDS011;58751;50.708;7.134;2023-09-19T07:03:06;7.03;;;2.67;;
71091;SDS011;58751;50.708;7.134;2023-09-19T07:05:32;10.07;;;2.80;;
71091;SDS011;58751;50.708;7.134;2023-09-19T07:07:58;10.97;;;2.97;;
71091;SDS011;58751;50.708;7.134;2023-09-19T07:10:25;10.67;;;4.27;;
71091;SDS011;58751;50.708;7.134;2023-09-19T07:12:55;7.23;;;3.70;;
71091;SDS011;58751;50.708;7.134;2023-09-19T07:15:21;5.20;;;2.60;;
71091;SDS011;58751;50.708;7.134;2023-09-19T07:17:46;9.73;;;2.90;;
71091;SDS011;58751;50.708;7.134;2023-09-19T07:20:11;7.53;;;3.37;;
71091;SDS011;58751;50.708;7.134;2023-09-19T07:22:37;7.23;;;2.60;;
71091;SDS011;58751;50.708;7.134;2023-09-19T07:25:02;8.67;;;3.13;;
71091;SDS011;58751;50.708;7.134;2023-09-19T07:27:29;7.27;;;3.37;;
71091;SDS011;58751;50.708;7.134;2023-09-19T07:29:55;9.23;;;2.97;;
71091;SDS011;58751;50.708;7.134;2023-09-19T07:32:20;7.90;;;2.57;;
71091;SDS011;58751;50.708;7.134;2023-09-19T07:34:46;7.33;;;2.67;;
71091;SDS011;58751;50.708;7.134;2023-09-19T07:37:11;8.40;;;3.07;;
71091;SDS011;58751;50.708;7.134;2023-09-19T07:39:37;8.13;;;3.10;;
71091;SDS011;58751;50.708;7.134;2023-09-19T07:42:02;9.43;;;3.20;;
71091;SDS011;58751;50.708;7.134;2023-09-19T07:44:29;7.60;;;3.60;;
71091;SDS011;58751;50.708;7.134;2023-09-19T07:46:55;6.43;;;3.37;;
71091;SDS011;58751;50.708;7.134;2023-09-19T07:49:20;8.60;;;2.93;;
71091;SDS011;58751;50.708;7.134;2023-09-19T07:51:46;10.73;;;2.80;;
71091;SDS011;58751;50.708;7.134;2023-09-19T07:54:11;9.27;;;3.57;;
71091;SDS011;58751;50.708;7.134;2023-09-19T07:56:36;11.13;;;3.20;;
71091;SDS011;58751;50.708;7.134;2023-09-19T07:59:02;4.90;;;2.90;;
71091;SDS011;58751;50.708;7.134;2023-09-19T08:01:29;4.60;;;2.43;;
71091;SDS011;58751;50.708;7.134;2023-09-19T08:03:54;7.93;;;2.80;;
71091;SDS011;58751;50.708;7.134;2023-09-19T08:06:20;7.07;;;2.73;;
71091;SDS011;58751;50.708;7.134;2023-09-19T08:08:45;5.80;;;2.93;;
71091;SDS011;58751;50.708;7.134;2023-09-19T08:11:10;6.20;;;2.60;;
71091;SDS011;58751;50.708;7.134;2023-09-19T08:13:36;6.30;;;2.57;;
71091;SDS011;58751;50.708;7.134;2023-09-19T08:16:02;5.73;;;2.50;;
71091;SDS011;58751;50.708;7.134;2023-09-19T08:18:29;6.43;;;2.60;;
71091;SDS011;58751;50.708;7.134;2023-09-19T08:20:55;7.33;;;3.00;;
71091;SDS011;58751;50.708;7.134;2023-09-19T08:23:20;5.60;;;2.90;;
71091;SDS011;58751;50.708;7.134;2023-09-19T08:25:46;8.37;;;3.50;;
71091;SDS011;58751;50.708;7.134;2023-09-19T08:28:11;8.00;;;3.07;;
71091;SDS011;58751;50.708;7.134;2023-09-19T08:30:37;6.17;;;1.93;;
71091;SDS011;58751;50.708;7.134;2023-09-19T08:33:02;8.67;;;2.97;;
71091;SDS011;58751;50.708;7.134;2023-09-19T08:35:29;5.23;;;2.73;;
71091;SDS011;58751;50.708;7.134;2023-09-19T08:37:55;10.37;;;2.97;;
71091;SDS011;58751;50.708;7.134;2023-09-19T08:40:20;8.67;;;3.37;;
71091;SDS011;58751;50.708;7.134;2023-09-19T08:42:49;8.20;;;2.10;;
71091;SDS011;58751;50.708;7.134;2023-09-19T08:45:14;5.80;;;2.50;;
71091;SDS011;58751;50.708;7.134;2023-09-19T08:47:41;6.80;;;2.70;;
71091;SDS011;58751;50.708;7.134;2023-09-19T08:50:11;5.27;;;2.57;;
71091;SDS011;58751;50.708;7.134;2023-09-19T08:52:42;7.23;;;2.73;;
71091;SDS011;58751;50.708;7.134;2023-09-19T08:55:11;7.50;;;2.50;;
71091;SDS011;58751;50.708;7.134;2023-09-19T08:57:37;6.57;;;2.43;;
71091;SDS011;58751;50.708;7.134;2023-09-19T09:00:03;3.30;;;2.00;;
71091;SDS011;58751;50.708;7.134;2023-09-19T09:02:30;8.23;;;2.80;;
71091;SDS011;58751;50.708;7.134;2023-09-19T09:04:56;5.33;;;2.40;;
71091;SDS011;58751;50.708;7.134;2023-09-19T09:07:23;5.77;;;4.10;;
71091;SDS011;58751;50.708;7.134;2023-09-19T09:09:50;5.23;;;2.63;;
71091;SDS011;58751;50.708;7.134;2023-09-19T09:12:16;4.80;;;2.43;;
71091;SDS011;58751;50.708;7.134;2023-09-19T09:14:43;7.53;;;2.80;;
71091;SDS011;58751;50.708;7.134;2023-09-19T09:17:09;5.07;;;2.53;;
71091;SDS011;58751;50.708;7.134;2023-09-19T09:19:35;4.47;;;2.63;;
71091;SDS011;58751;50.708;7.134;2023-09-19T09:22:07;6.40;;;2.40;;
71091;SDS011;58751;50.708;7.134;2023-09-19T09:24:33;5.20;;;3.10;;
71091;SDS011;58751;50.708;7.134;2023-09-19T09:26:59;6.20;;;2.77;;
71091;SDS011;58751;50.708;7.134;2023-09-19T09:29:41;6.67;;;2.87;;
71091;SDS011;58751;50.708;7.134;2023-09-19T09:32:16;3.37;;;2.20;;
71091;SDS011;58751;50.708;7.134;2023-09-19T09:34:42;4.40;;;2.00;;
71091;SDS011;58751;50.708;7.134;2023-09-19T09:37:07;5.43;;;2.80;;
71091;SDS011;58751;50.708;7.134;2023-09-19T09:39:38;6.20;;;2.27;;
71091;SDS011;58751;50.708;7.134;2023-09-19T09:42:05;7.07;;;2.53;;
71091;SDS011;58751;50.708;7.134;2023-09-19T09:44:30;4.03;;;2.60;;
71091;SDS011;58751;50.708;7.134;2023-09-19T09:46:56;9.10;;;2.83;;
71091;SDS011;58751;50.708;7.134;2023-09-19T09:49:22;8.23;;;2.97;;
71091;SDS011;58751;50.708;7.134;2023-09-19T09:51:49;10.77;;;2.60;;
71091;SDS011;58751;50.708;7.134;2023-09-19T09:54:16;4.17;;;2.30;;
71091;SDS011;58751;50.708;7.134;2023-09-19T09:56:54;3.87;;;2.13;;
71091;SDS011;58751;50.708;7.134;2023-09-19T09:59:21;4.10;;;2.07;;
71091;SDS011;58751;50.708;7.134;2023-09-19T10:01:47;4.80;;;2.43;;
71091;SDS011;58751;50.708;7.134;2023-09-19T10:04:12;4.50;;;2.10;;
71091;SDS011;58751;50.708;7.134;2023-09-19T10:06:52;7.30;;;2.80;;
71091;SDS011;58751;50.708;7.134;2023-09-19T10:09:17;4.13;;;1.70;;
71091;SDS011;58751;50.708;7.134;2023-09-19T10:11:43;9.60;;;2.40;;
71091;SDS011;58751;50.708;7.134;2023-09-19T10:14:09;3.60;;;2.07;;
71091;SDS011;58751;50.708;7.134;2023-09-19T10:16:37;3.80;;;2.30;;
71091;SDS011;58751;50.708;7.134;2023-09-19T10:19:06;3.53;;;2.53;;
71091;SDS011;58751;50.708;7.134;2023-09-19T10:21:32;3.37;;;2.43;;
71091;SDS011;58751;50.708;7.134;2023-09-19T10:23:58;4.10;;;2.13;;
71091;SDS011;58751;50.708;7.134;2023-09-19T10:26:25;2.60;;;1.83;;
71091;SDS011;58751;50.708;7.134;2023-09-19T10:28:51;4.90;;;2.33;;
71091;SDS011;58751;50.708;7.134;2023-09-19T10:31:17;7.20;;;2.13;;
71091;SDS011;58751;50.708;7.134;2023-09-19T10:33:45;3.50;;;2.07;;
71091;SDS011;58751;50.708;7.134;2023-09-19T10:36:12;5.87;;;2.00;;
71091;SDS011;58751;50.708;7.134;2023-09-19T10:38:38;7.23;;;2.80;;
71091;SDS011;58751;50.708;7.134;2023-09-19T10:41:04;5.07;;;2.10;;
71091;SDS011;58751;50.708;7.134;2023-09-19T10:43:31;3.20;;;1.83;;
71091;SDS011;58751;50.708;7.134;2023-09-19T10:45:58;5.70;;;1.73;;
71091;SDS011;58751;50.708;7.134;2023-09-19T10:48:26;6.30;;;1.90;;
71091;SDS011;58751;50.708;7.134;2023-09-19T10:50:53;4.87;;;2.70;;
71091;SDS011;58751;50.708;7.134;2023-09-19T10:53:23;2.73;;;1.93;;
71091;SDS011;58751;50.708;7.134;2023-09-19T10:55:52;4.40;;;2.37;;
71091;SDS011;58751;50.708;7.134;2023-09-19T10:58:24;4.83;;;2.53;;
71091;SDS011;58751;50.708;7.134;2023-09-19T11:00:51;3.57;;;1.67;;
71091;SDS011;58751;50.708;7.134;2023-09-19T11:03:18;4.80;;;3.03;;
71091;SDS011;58751;50.708;7.134;2023-09-19T11:05:45;4.33;;;2.50;;
71091;SDS011;58751;50.708;7.134;2023-09-19T11:08:27;3.37;;;2.17;;
71091;SDS011;58751;50.708;7.134;2023-09-19T11:10:52;3.70;;;2.57;;
71091;SDS011;58751;50.708;7.134;2023-09-19T11:13:24;3.10;;;1.90;;
71091;SDS011;58751;50.708;7.134;2023-09-19T11:21:49;8.53;;;2.40;;
71091;SDS011;58751;50.708;7.134;2023-09-19T11:24:31;6.20;;;2.30;;
71091;SDS011;58751;50.708;7.134;2023-09-19T11:27:09;5.13;;;2.50;;
71091;SDS011;58751;50.708;7.134;2023-09-19T11:29:35;3.77;;;2.60;;
71091;SDS011;58751;50.708;7.134;2023-09-19T11:32:00;4.73;;;2.33;;
71091;SDS011;58751;50.708;7.134;2023-09-19T11:34:39;4.80;;;2.43;;
71091;SDS011;58751;50.708;7.134;2023-09-19T11:40:25;3.77;;;2.30;;
71091;SDS011;58751;50.708;7.134;2023-09-19T11:42:51;4.57;;;2.13;;
71091;SDS011;58751;50.708;7.134;2023-09-19T11:48:15;7.53;;;2.07;;
71091;SDS011;58751;50.708;7.134;2023-09-19T11:50:43;2.87;;;2.10;;
71091;SDS011;58751;50.708;7.134;2023-09-19T11:53:10;5.60;;;2.60;;
71091;SDS011;58751;50.708;7.134;2023-09-19T11:55:37;2.97;;;2.20;;
71091;SDS011;58751;50.708;7.134;2023-09-19T11:58:02;5.20;;;2.70;;
71091;SDS011;58751;50.708;7.134;2023-09-19T12:00:28;2.90;;;2.00;;
71091;SDS011;58751;50.708;7.134;2023-09-19T12:02:54;4.13;;;1.80;;
71091;SDS011;58751;50.708;7.134;2023-09-19T12:05:27;3.27;;;2.03;;
71091;SDS011;58751;50.708;7.134;2023-09-19T12:07:53;3.73;;;2.20;;
71091;SDS011;58751;50.708;7.134;2023-09-19T12:10:19;5.60;;;2.27;;
71091;SDS011;58751;50.708;7.134;2023-09-19T12:12:48;3.13;;;1.97;;
71091;SDS011;58751;50.708;7.134;2023-09-19T12:15:13;2.57;;;2.00;;
71091;SDS011;58751;50.708;7.134;2023-09-19T12:17:39;3.33;;;1.87;;
71091;SDS011;58751;50.708;7.134;2023-09-19T12:20:06;6.83;;;2.30;;
71091;SDS011;58751;50.708;7.134;2023-09-19T12:22:38;4.60;;;1.87;;
71091;SDS011;58751;50.708;7.134;2023-09-19T12:25:05;3.37;;;2.07;;
71091;SDS011;58751;50.708;7.134;2023-09-19T12:27:31;2.70;;;2.23;;
71091;SDS011;58751;50.708;7.134;2023-09-19T12:30:08;4.40;;;2.20;;
71091;SDS011;58751;50.708;7.134;2023-09-19T12:32:35;3.80;;;1.60;;
71091;SDS011;58751;50.708;7.134;2023-09-19T12:35:00;5.70;;;2.47;;
71091;SDS011;58751;50.708;7.134;2023-09-19T12:37:26;3.27;;;2.30;;
71091;SDS011;58751;50.708;7.134;2023-09-19T12:39:51;2.93;;;1.80;;
71091;SDS011;58751;50.708;7.134;2023-09-19T12:42:17;3.30;;;2.27;;
71091;SDS011;58751;50.708;7.134;2023-09-19T12:44:45;3.47;;;2.40;;
71091;SDS011;58751;50.708;7.134;2023-09-19T12:47:14;3.03;;;1.93;;
71091;SDS011;58751;50.708;7.134;2023-09-19T12:52:34;3.63;;;2.27;;
71091;SDS011;58751;50.708;7.134;2023-09-19T12:55:00;7.10;;;2.13;;
71091;SDS011;58751;50.708;7.134;2023-09-19T12:57:25;1.80;;;1.60;;
71091;SDS011;58751;50.708;7.134;2023-09-19T12:59:51;5.43;;;2.10;;
71091;SDS011;58751;50.708;7.134;2023-09-19T13:02:18;3.00;;;1.50;;
71091;SDS011;58751;50.708;7.134;2023-09-19T13:04:51;3.20;;;1.47;;
71091;SDS011;58751;50.708;7.134;2023-09-19T13:10:07;3.97;;;1.70;;
71091;SDS011;58751;50.708;7.134;2023-09-19T13:12:36;3.40;;;1.90;;
71091;SDS011;58751;50.708;7.134;2023-09-19T13:15:08;2.23;;;1.40;;
71091;SDS011;58751;50.708;7.134;2023-09-19T13:17:43;2.13;;;1.53;;
71091;SDS011;58751;50.708;7.134;2023-09-19T13:20:20;3.10;;;1.87;;
71091;SDS011;58751;50.708;7.134;2023-09-19T13:22:46;6.87;;;1.80;;
71091;SDS011;58751;50.708;7.134;2023-09-19T13:25:13;3.20;;;1.80;;
71091;SDS011;58751;50.708;7.134;2023-09-19T13:27:39;2.33;;;1.50;;
71091;SDS011;58751;50.708;7.134;2023-09-19T13:30:06;3.83;;;1.70;;
71091;SDS011;58751;50.708;7.134;2023-09-19T13:32:32;3.77;;;1.40;;
71091;SDS011;58751;50.708;7.134;2023-09-19T13:34:59;2.97;;;1.13;;
71091;SDS011;58751;50.708;7.134;2023-09-19T13:37:24;3.90;;;1.60;;
71091;SDS011;58751;50.708;7.134;2023-09-19T13:39:50;2.97;;;1.37;;
71091;SDS011;58751;50.708;7.134;2023-09-19T13:42:15;4.17;;;1.70;;
71091;SDS011;58751;50.708;7.134;2023-09-19T13:44:41;4.93;;;2.40;;
71091;SDS011;58751;50.708;7.134;2023-09-19T13:47:06;3.00;;;1.43;;
71091;SDS011;58751;50.708;7.134;2023-09-19T13:49:32;2.37;;;1.10;;
71091;SDS011;58751;50.708;7.134;2023-09-19T13:51:58;5.17;;;1.73;;
71091;SDS011;58751;50.708;7.134;2023-09-19T13:54:24;6.50;;;2.13;;
71091;SDS011;58751;50.708;7.134;2023-09-19T13:56:49;4.70;;;1.80;;
71091;SDS011;58751;50.708;7.134;2023-09-19T13:59:15;2.50;;;1.37;;
71091;SDS011;58751;50.708;7.134;2023-09-19T14:01:40;4.30;;;1.63;;
71091;SDS011;58751;50.708;7.134;2023-09-19T14:04:06;4.17;;;1.10;;
71091;SDS011;58751;50.708;7.134;2023-09-19T14:06:31;3.47;;;1.30;;
71091;SDS011;58751;50.708;7.134;2023-09-19T14:08:58;4.70;;;1.60;;
71091;SDS011;58751;50.708;7.134;2023-09-19T14:11:23;3.23;;;1.30;;
71091;SDS011;58751;50.708;7.134;2023-09-19T14:13:48;1.47;;;1.30;;
71091;SDS011;58751;50.708;7.134;2023-09-19T14:16:15;1.97;;;1.47;;
71091;SDS011;58751;50.708;7.134;2023-09-19T14:18:41;2.80;;;1.30;;
71091;SDS011;58751;50.708;7.134;2023-09-19T14:21:06;2.93;;;2.00;;
71091;SDS011;58751;50.708;7.134;2023-09-19T14:23:34;2.60;;;1.57;;
71091;SDS011;58751;50.708;7.134;2023-09-19T14:26:01;2.83;;;1.83;;
71091;SDS011;58751;50.708;7.134;2023-09-19T14:28:27;5.20;;;1.57;;
71091;SDS011;58751;50.708;7.134;2023-09-19T14:30:52;3.80;;;1.30;;
71091;SDS011;58751;50.708;7.134;2023-09-19T14:33:18;3.60;;;1.37;;
71091;SDS011;58751;50.708;7.134;2023-09-19T14:35:43;5.53;;;1.70;;
71091;SDS011;58751;50.708;7.134;2023-09-19T14:38:09;18.37;;;1.70;;
71091;SDS011;58751;50.708;7.134;2023-09-19T14:40:34;1.93;;;1.20;;
71091;SDS011;58751;50.708;7.134;2023-09-19T14:43:01;2.10;;;1.80;;
71091;SDS011;58751;50.708;7.134;2023-09-19T14:45:26;1.60;;;1.20;;
71091;SDS011;58751;50.708;7.134;2023-09-19T14:47:52;3.33;;;1.40;;
71091;SDS011;58751;50.708;7.134;2023-09-19T14:50:17;2.27;;;1.43;;
71091;SDS011;58751;50.708;7.134;2023-09-19T14:52:42;2.03;;;1.40;;
71091;SDS011;58751;50.708;7.134;2023-09-19T14:55:08;3.90;;;1.67;;
71091;SDS011;58751;50.708;7.134;2023-09-19T14:57:33;2.90;;;1.47;;
71091;SDS011;58751;50.708;7.134;2023-09-19T15:00:00;3.17;;;1.33;;
71091;SDS011;58751;50.708;7.134;2023-09-19T15:02:26;2.50;;;1.27;;